Time;durP1;ratioP1;P1;durP2;ratioP2;P2;SDS_P1;SDS_P2;PMS_P1;PMS_P2;Temp;Humidity;BMP_temperature;BMP_pressure;BME280_temperature;BME280_humidity;BME280_pressure;Samples;Min_cycle;Max_cycle;Signal;HPM_P1;HPM_P2
2022/03/10 00:03:42;;;;;;;16.58;8.98;;;8.80;68.50;;;;;;10489851;28;20067;-70
2022/03/10 00:08:44;;;;;;;18.80;9.60;;;8.70;68.40;;;;;;10489710;28;20028;-67
2022/03/10 00:13:46;;;;;;;17.95;9.45;;;8.70;68.50;;;;;;10488551;28;20020;-71
2022/03/10 00:18:47;;;;;;;14.95;8.65;;;8.70;68.50;;;;;;10486625;28;20040;-69
2022/03/10 00:23:48;;;;;;;17.58;9.40;;;8.70;68.50;;;;;;10479417;28;20021;-66
2022/03/10 00:28:48;;;;;;;17.05;9.30;;;8.60;69.10;;;;;;10486321;28;20433;-68
2022/03/10 00:33:49;;;;;;;14.77;9.10;;;8.60;68.50;;;;;;10486307;28;20024;-69
2022/03/10 00:38:51;;;;;;;18.88;9.00;;;8.60;68.60;;;;;;10488712;28;20220;-70
2022/03/10 00:43:52;;;;;;;20.17;9.35;;;8.50;68.50;;;;;;10488165;28;20254;-71
2022/03/10 00:48:52;;;;;;;16.08;8.75;;;8.50;68.60;;;;;;10487960;28;20029;-65
2022/03/10 00:53:53;;;;;;;16.17;9.25;;;8.50;68.80;;;;;;10487561;28;20560;-70
2022/03/10 00:58:54;;;;;;;17.60;9.57;;;8.50;68.80;;;;;;10488346;28;20036;-71
2022/03/10 01:03:54;;;;;;;18.13;9.02;;;8.50;68.80;;;;;;10489301;28;20023;-72
2022/03/10 01:08:55;;;;;;;20.08;9.48;;;8.40;68.80;;;;;;10487982;28;20110;-70
2022/03/10 01:13:57;;;;;;;16.55;8.95;;;8.40;69.00;;;;;;10486562;28;20033;-70
2022/03/10 01:18:57;;;;;;;17.80;9.63;;;8.40;68.90;;;;;;10454313;28;20039;-71
2022/03/10 01:23:58;;;;;;;13.80;8.35;;;8.40;69.10;;;;;;10476715;28;20111;-68
2022/03/10 01:28:59;;;;;;;18.25;9.35;;;8.30;69.10;;;;;;10484883;28;20025;-71
2022/03/10 01:33:59;;;;;;;20.15;9.32;;;8.40;69.20;;;;;;10485152;28;20387;-65
2022/03/10 01:39:04;;;;;;;16.98;9.23;;;8.30;69.20;;;;;;10485958;28;20044;-69
2022/03/10 01:44:10;;;;;;;18.13;8.75;;;8.30;69.20;;;;;;10485762;28;20070;-65
2022/03/10 01:49:10;;;;;;;16.73;8.32;;;8.20;69.20;;;;;;10485619;28;20100;-67
2022/03/10 01:54:11;;;;;;;17.08;8.40;;;8.20;69.30;;;;;;10476797;28;20120;-63
2022/03/10 01:59:13;;;;;;;15.75;9.32;;;8.20;69.40;;;;;;10474631;28;20039;-68
2022/03/10 02:04:14;;;;;;;15.07;8.63;;;8.20;69.40;;;;;;10485862;28;20402;-70
2022/03/10 02:19:56;;;;;;;18.92;10.07;;;8.10;69.30;;;;;;10482686;28;20556;-68
2022/03/10 02:24:57;;;;;;;17.95;9.15;;;8.10;69.40;;;;;;10481742;28;20103;-69
2022/03/10 02:30:00;;;;;;;16.98;8.98;;;8.10;69.80;;;;;;10490761;28;20036;-64
2022/03/10 02:35:01;;;;;;;16.58;9.02;;;8.30;69.50;;;;;;10492923;28;20389;-63
2022/03/10 02:40:03;;;;;;;15.68;8.80;;;8.00;69.30;;;;;;10492954;28;20052;-71
2022/03/10 02:45:04;;;;;;;17.02;9.20;;;8.00;69.20;;;;;;10490282;28;20012;-69
2022/03/10 02:50:07;;;;;;;16.63;8.52;;;8.00;69.10;;;;;;10487168;28;20048;-70
2022/03/10 02:55:08;;;;;;;18.40;10.07;;;8.00;69.00;;;;;;10489499;28;20115;-64
2022/03/10 03:00:09;;;;;;;16.75;8.75;;;8.00;69.10;;;;;;10488675;28;20036;-69
2022/03/10 03:05:14;;;;;;;17.90;8.93;;;7.90;69.00;;;;;;10488614;28;20032;-69
2022/03/10 03:10:15;;;;;;;19.90;9.10;;;7.90;69.00;;;;;;10485863;28;20050;-69
2022/03/10 03:15:17;;;;;;;17.50;8.98;;;7.90;69.00;;;;;;10487025;28;20027;-66
2022/03/10 03:20:17;;;;;;;15.60;8.40;;;7.90;69.00;;;;;;10475978;28;20025;-65
2022/03/10 03:25:18;;;;;;;17.60;9.30;;;7.90;69.00;;;;;;10487438;28;20032;-72
2022/03/10 03:30:18;;;;;;;18.08;9.25;;;7.80;68.90;;;;;;10484644;28;20025;-68
2022/03/10 03:35:19;;;;;;;17.48;9.10;;;7.80;68.80;;;;;;10487361;28;20312;-68
2022/03/10 03:40:20;;;;;;;16.52;8.85;;;7.80;68.80;;;;;;10443860;28;1240125;-66
2022/03/10 03:45:22;;;;;;;18.13;9.32;;;7.80;68.80;;;;;;10488974;28;20077;-69
2022/03/10 03:50:23;;;;;;;20.20;9.55;;;7.70;68.70;;;;;;10487187;28;20029;-68
2022/03/10 03:55:24;;;;;;;20.60;11.02;;;7.70;68.70;;;;;;10489457;28;20020;-66
2022/03/10 04:00:24;;;;;;;17.17;8.73;;;7.70;68.60;;;;;;10486732;28;20032;-70
2022/03/10 04:05:25;;;;;;;18.88;9.30;;;7.70;68.60;;;;;;10488900;28;20111;-64
2022/03/10 04:10:26;;;;;;;18.95;8.73;;;7.80;68.70;;;;;;10488487;28;20033;-66
2022/03/10 04:15:26;;;;;;;20.45;9.63;;;7.70;68.60;;;;;;10487674;28;20490;-68
2022/03/10 04:20:28;;;;;;;15.88;8.85;;;7.60;68.50;;;;;;10475253;28;20029;-70
2022/03/10 04:25:28;;;;;;;18.50;9.63;;;7.60;68.40;;;;;;10476116;28;20082;-67
2022/03/10 04:30:32;;;;;;;18.02;9.77;;;7.60;68.40;;;;;;10484775;28;20043;-72
2022/03/10 04:35:33;;;;;;;19.25;9.80;;;7.60;68.30;;;;;;10487360;28;20498;-70
2022/03/10 04:40:34;;;;;;;19.08;10.30;;;7.70;68.30;;;;;;10486242;28;20113;-69
2022/03/10 04:45:35;;;;;;;16.73;8.30;;;7.60;68.20;;;;;;10486704;28;20021;-67
2022/03/10 04:50:36;;;;;;;19.92;9.40;;;7.50;68.20;;;;;;10484374;28;20040;-66
2022/03/10 04:55:37;;;;;;;17.70;9.52;;;7.90;68.40;;;;;;10486443;28;20086;-71
2022/03/10 05:00:38;;;;;;;16.55;9.13;;;7.50;68.10;;;;;;10468834;28;20412;-66
2022/03/10 05:05:38;;;;;;;19.58;9.60;;;7.50;68.20;;;;;;10480375;28;20380;-64
2022/03/10 05:10:39;;;;;;;20.27;9.98;;;7.50;68.10;;;;;;10476556;28;20025;-68
2022/03/10 05:15:40;;;;;;;17.38;8.90;;;7.60;68.20;;;;;;10478650;28;20409;-70
2022/03/10 05:20:41;;;;;;;20.60;9.68;;;7.40;68.00;;;;;;10474003;28;20040;-70
2022/03/10 05:25:42;;;;;;;19.77;10.00;;;7.40;68.00;;;;;;10487079;28;20033;-63
2022/03/10 05:30:45;;;;;;;18.75;9.43;;;7.40;68.00;;;;;;10483035;28;20029;-71
2022/03/10 05:35:45;;;;;;;20.90;9.75;;;7.40;68.00;;;;;;10487480;28;20033;-68
2022/03/10 05:40:46;;;;;;;20.55;9.30;;;7.40;68.00;;;;;;10489142;28;20060;-70
2022/03/10 05:45:47;;;;;;;25.65;10.73;;;7.30;67.90;;;;;;10486441;28;20061;-68
2022/03/10 05:50:47;;;;;;;19.13;9.73;;;7.30;67.90;;;;;;10483136;28;20024;-71
2022/03/10 05:55:48;;;;;;;19.65;9.35;;;7.30;68.00;;;;;;10484908;28;20479;-71
2022/03/10 06:00:49;;;;;;;17.88;10.77;;;7.30;68.00;;;;;;10483037;28;20064;-70
2022/03/10 06:05:50;;;;;;;17.67;9.13;;;7.30;68.00;;;;;;10484165;28;20148;-67
2022/03/10 06:10:50;;;;;;;19.35;8.98;;;7.20;67.90;;;;;;10484667;28;20043;-71
2022/03/10 06:15:51;;;;;;;16.70;9.18;;;7.20;67.90;;;;;;10485231;28;20036;-70
2022/03/10 06:20:52;;;;;;;21.58;9.15;;;7.20;67.80;;;;;;10466670;28;20437;-73
2022/03/10 06:25:52;;;;;;;20.25;10.00;;;7.30;68.10;;;;;;10474801;28;20025;-75
2022/03/10 06:30:53;;;;;;;19.92;9.10;;;7.20;68.10;;;;;;10475766;28;20033;-71
2022/03/10 06:35:54;;;;;;;17.85;9.20;;;7.20;68.10;;;;;;10452649;28;20027;-75
2022/03/10 06:40:54;;;;;;;18.25;8.90;;;7.20;68.60;;;;;;10481644;28;20058;-64
2022/03/10 06:45:55;;;;;;;18.15;9.18;;;7.20;67.90;;;;;;10482456;28;20074;-78
2022/03/10 06:50:56;;;;;;;17.45;9.57;;;7.20;67.90;;;;;;10464393;28;20116;-75
2022/03/10 06:55:57;;;;;;;19.58;9.27;;;7.20;67.90;;;;;;10476435;28;20012;-71
2022/03/10 07:00:58;;;;;;;16.67;9.30;;;7.20;67.80;;;;;;10461662;28;20037;-76
2022/03/10 07:05:59;;;;;;;19.05;9.63;;;7.20;67.70;;;;;;10495783;28;20033;-76
2022/03/10 07:10:59;;;;;;;18.58;9.10;;;7.20;67.60;;;;;;10490827;28;20116;-71
2022/03/10 07:16:00;;;;;;;19.20;9.70;;;7.30;67.90;;;;;;10489274;28;20120;-73
2022/03/10 07:21:02;;;;;;;16.67;8.68;;;7.30;67.60;;;;;;10478703;28;20102;-67
2022/03/10 07:26:03;;;;;;;16.17;9.02;;;7.30;67.50;;;;;;10484434;28;20412;-73
2022/03/10 07:31:04;;;;;;;18.35;9.23;;;7.30;67.50;;;;;;10464402;28;20078;-75
2022/03/10 07:36:05;;;;;;;16.67;8.77;;;7.30;67.30;;;;;;10435050;28;20080;-75
2022/03/10 07:41:06;;;;;;;21.13;9.07;;;7.30;67.20;;;;;;10474917;28;20065;-68
2022/03/10 07:46:07;;;;;;;18.05;9.50;;;7.40;66.80;;;;;;10477153;28;20124;-71
2022/03/10 07:51:07;;;;;;;19.63;8.90;;;7.50;66.60;;;;;;10485998;28;20112;-69
2022/03/10 07:56:08;;;;;;;17.90;8.68;;;7.70;66.30;;;;;;10496241;28;20091;-74
2022/03/10 08:01:09;;;;;;;18.58;9.10;;;7.80;65.90;;;;;;10473406;28;20044;-74
2022/03/10 08:06:10;;;;;;;17.20;8.90;;;7.90;65.60;;;;;;10482661;28;20021;-75
2022/03/10 08:11:11;;;;;;;16.33;8.07;;;8.10;65.30;;;;;;10465889;28;20035;-70
2022/03/10 08:16:12;;;;;;;16.35;8.50;;;8.20;65.10;;;;;;10449727;28;20545;-72
2022/03/10 08:21:13;;;;;;;16.05;8.32;;;8.30;65.00;;;;;;10463588;28;20032;-70
2022/03/10 08:26:14;;;;;;;17.50;8.60;;;8.30;64.90;;;;;;10478322;28;20491;-74
2022/03/10 08:31:14;;;;;;;21.85;9.65;;;8.40;64.90;;;;;;10468912;28;20032;-73
2022/03/10 08:36:15;;;;;;;14.95;7.95;;;8.40;65.40;;;;;;10480537;28;20029;-71
2022/03/10 08:41:16;;;;;;;16.48;8.40;;;8.40;64.80;;;;;;10476197;28;20044;-70
2022/03/10 08:46:16;;;;;;;14.80;7.97;;;8.50;64.70;;;;;;10484913;28;20021;-72
2022/03/10 08:51:17;;;;;;;20.60;9.20;;;8.50;64.60;;;;;;10482182;28;20387;-71
2022/03/10 08:56:18;;;;;;;16.83;9.52;;;8.60;64.70;;;;;;10458412;28;20029;-71
2022/03/10 09:01:19;;;;;;;20.48;9.68;;;8.60;64.70;;;;;;10447901;28;20028;-72
2022/03/10 09:06:19;;;;;;;16.83;8.85;;;8.70;64.70;;;;;;10449798;28;20107;-71
2022/03/10 09:11:20;;;;;;;15.27;8.60;;;8.80;64.70;;;;;;10452127;28;20036;-67
2022/03/10 09:16:22;;;;;;;18.13;9.40;;;8.80;64.70;;;;;;10470112;28;20028;-68
2022/03/10 09:21:24;;;;;;;18.85;8.90;;;8.80;64.60;;;;;;10472452;28;20068;-67
2022/03/10 09:26:24;;;;;;;21.33;10.02;;;8.80;64.50;;;;;;10449275;28;20028;-71
2022/03/10 09:31:25;;;;;;;17.52;8.90;;;8.90;64.50;;;;;;10450738;28;20021;-68
2022/03/10 09:36:26;;;;;;;16.75;8.90;;;8.90;64.40;;;;;;10450997;28;20023;-70
2022/03/10 09:41:28;;;;;;;17.70;8.30;;;9.00;64.90;;;;;;10469045;28;20110;-70
2022/03/10 09:46:30;;;;;;;19.30;9.20;;;9.10;64.60;;;;;;10487886;28;20115;-68
2022/03/10 09:51:31;;;;;;;17.65;9.02;;;9.20;64.60;;;;;;10480047;28;20035;-70
2022/03/10 09:56:36;;;;;;;18.90;9.40;;;9.20;64.50;;;;;;10474199;28;20021;-70
2022/03/10 10:01:36;;;;;;;18.58;9.38;;;9.30;64.40;;;;;;10477415;28;20079;-69
2022/03/10 10:07:00;;;;;;;18.33;9.77;;;9.40;64.40;;;;;;10472201;28;20044;-67
2022/03/10 10:12:08;;;;;;;18.77;9.57;;;9.40;64.20;;;;;;10482925;28;20074;-70
2022/03/10 10:17:09;;;;;;;19.77;9.63;;;9.40;64.00;;;;;;10478911;28;20037;-67
2022/03/10 10:22:20;;;;;;;22.08;9.32;;;9.60;64.20;;;;;;10470381;28;20029;-68
2022/03/10 10:27:29;;;;;;;19.65;8.55;;;9.60;64.10;;;;;;10479013;28;20494;-70
2022/03/10 10:32:31;;;;;;;22.02;9.48;;;9.70;64.00;;;;;;10478668;28;20029;-70
2022/03/10 10:37:33;;;;;;;21.17;9.63;;;9.80;64.00;;;;;;10485551;28;20483;-68
2022/03/10 10:42:35;;;;;;;20.58;9.55;;;9.90;64.10;;;;;;10489070;28;20056;-69
2022/03/10 10:48:09;;;;;;;21.02;10.13;;;10.00;64.00;;;;;;10489509;28;20070;-70
2022/03/10 10:53:30;;;;;;;19.23;9.23;;;10.10;63.90;;;;;;10482510;28;20032;-69
2022/03/10 10:58:31;;;;;;;21.83;10.02;;;10.20;63.80;;;;;;10479078;28;20036;-70
2022/03/10 11:03:35;;;;;;;21.08;10.13;;;10.30;63.90;;;;;;10481963;28;20106;-70
2022/03/10 11:08:36;;;;;;;19.17;9.13;;;10.40;63.80;;;;;;10480783;28;20507;-70
2022/03/10 11:13:37;;;;;;;21.88;10.15;;;10.40;63.70;;;;;;10467880;28;20078;-66
2022/03/10 11:18:41;;;;;;;21.25;10.30;;;10.50;63.70;;;;;;10480089;28;20501;-67
2022/03/10 11:23:57;;;;;;;21.73;10.30;;;10.60;63.60;;;;;;10479367;28;20033;-68
2022/03/10 11:28:59;;;;;;;24.40;10.88;;;10.70;63.50;;;;;;10469723;28;20028;-70
2022/03/10 11:34:00;;;;;;;23.50;10.70;;;10.70;63.50;;;;;;10468587;28;20034;-66
2022/03/10 11:39:07;;;;;;;23.40;11.10;;;10.80;63.50;;;;;;10484199;28;20378;-69
2022/03/10 11:44:08;;;;;;;28.85;11.32;;;10.90;63.50;;;;;;10487578;28;20551;-65
2022/03/10 11:49:11;;;;;;;27.52;11.13;;;11.00;63.40;;;;;;10485135;28;20552;-68
2022/03/10 11:54:17;;;;;;;22.98;10.43;;;11.10;63.40;;;;;;10485335;28;20025;-69
2022/03/10 11:59:36;;;;;;;23.17;10.52;;;11.20;63.30;;;;;;10477701;28;20041;-70
2022/03/10 12:04:38;;;;;;;21.05;10.70;;;11.20;63.30;;;;;;10486899;28;20063;-70
2022/03/10 12:09:41;;;;;;;27.27;11.68;;;11.30;63.20;;;;;;10451914;28;20066;-70
2022/03/10 12:14:42;;;;;;;25.35;10.63;;;11.40;63.00;;;;;;10485692;28;20037;-72
2022/03/10 12:20:10;;;;;;;22.83;11.63;;;11.40;63.10;;;;;;10468753;28;20659;-71
2022/03/10 12:25:22;;;;;;;27.53;10.80;;;11.50;62.70;;;;;;10459596;28;20037;-66
2022/03/10 12:30:25;;;;;;;22.75;10.65;;;11.50;62.80;;;;;;10472050;28;20032;-70
2022/03/10 12:35:29;;;;;;;22.40;10.85;;;11.60;62.90;;;;;;10468566;28;20029;-72
2022/03/10 12:40:33;;;;;;;23.48;11.48;;;11.70;62.90;;;;;;10481703;28;20041;-67
2022/03/10 12:45:45;;;;;;;22.88;11.23;;;12.00;62.40;;;;;;10464515;28;20023;-68
2022/03/10 12:50:46;;;;;;;25.92;11.68;;;12.30;61.30;;;;;;10478020;28;20111;-68
2022/03/10 12:55:55;;;;;;;27.23;11.38;;;12.50;61.40;;;;;;10478692;28;20472;-72
2022/03/10 13:01:07;;;;;;;25.35;11.55;;;12.80;60.70;;;;;;10474757;28;20508;-71
2022/03/10 13:06:09;;;;;;;25.83;11.82;;;12.90;60.50;;;;;;10480566;28;20589;-72
2022/03/10 13:11:11;;;;;;;29.92;14.63;;;13.00;60.80;;;;;;10475625;28;20612;-72
2022/03/10 13:16:12;;;;;;;29.52;13.95;;;13.20;60.20;;;;;;10483284;28;20382;-64
2022/03/10 13:21:16;;;;;;;23.25;11.35;;;13.30;60.20;;;;;;10475154;28;20041;-70
2022/03/10 13:26:20;;;;;;;25.85;12.43;;;13.50;59.80;;;;;;10484845;28;20032;-69
2022/03/10 13:31:29;;;;;;;25.77;11.38;;;13.50;59.40;;;;;;10479874;28;20119;-66
2022/03/10 13:36:30;;;;;;;;;;;13.60;58.60;;;;;;10480805;28;20032;-68
2022/03/10 13:41:31;;;;;;;25.63;11.65;;;13.70;56.80;;;;;;10478015;28;20039;-70
2022/03/10 13:46:32;;;;;;;26.85;11.45;;;13.80;58.90;;;;;;10482978;28;20079;-66
2022/03/10 13:51:36;;;;;;;25.25;11.85;;;13.90;58.50;;;;;;10476196;28;20119;-64
2022/03/10 13:56:41;;;;;;;27.02;10.70;;;14.00;58.40;;;;;;10472827;28;20044;-69
2022/03/10 14:01:43;;;;;;;22.48;11.15;;;14.20;58.00;;;;;;10471856;28;20056;-70
2022/03/10 14:06:51;;;;;;;25.10;11.25;;;14.30;57.90;;;;;;10468696;28;20017;-70
2022/03/10 14:11:53;;;;;;;24.23;10.88;;;14.40;56.20;;;;;;10486081;28;20050;-66
2022/03/10 14:16:54;;;;;;;24.52;11.13;;;14.60;56.70;;;;;;10489598;28;20068;-71
2022/03/10 14:21:58;;;;;;;23.90;10.82;;;14.80;56.20;;;;;;10488456;28;20039;-68
2022/03/10 14:27:09;;;;;;;27.05;12.00;;;14.90;56.40;;;;;;10451264;28;20027;-69
2022/03/10 14:32:11;;;;;;;22.08;10.98;;;15.10;55.50;;;;;;10467122;28;20482;-67
2022/03/10 14:37:12;;;;;;;23.02;11.07;;;15.20;55.60;;;;;;10483221;28;20530;-69
2022/03/10 14:42:12;;;;;;;22.55;10.73;;;15.20;55.10;;;;;;10464048;28;20048;-65
2022/03/10 14:47:13;;;;;;;27.02;11.98;;;15.30;55.10;;;;;;10489212;28;20059;-64
2022/03/10 14:52:17;;;;;;;24.92;10.88;;;15.20;54.90;;;;;;10473851;28;20507;-71
2022/03/10 14:57:18;;;;;;;23.65;11.43;;;15.30;55.00;;;;;;10463153;28;20044;-73
2022/03/10 15:02:19;;;;;;;23.52;11.45;;;15.20;54.80;;;;;;10454892;28;20079;-65
2022/03/10 15:07:19;;;;;;;26.10;11.90;;;15.20;54.80;;;;;;10458887;28;20033;-61
2022/03/10 15:12:20;;;;;;;29.33;12.50;;;15.20;54.60;;;;;;10460258;28;20502;-64
2022/03/10 15:17:21;;;;;;;23.35;12.63;;;15.10;54.40;;;;;;10458832;28;20510;-64
2022/03/10 15:22:22;;;;;;;26.83;12.68;;;15.10;54.50;;;;;;10471440;28;20380;-67
2022/03/10 15:27:23;;;;;;;30.70;13.32;;;15.10;54.60;;;;;;10458224;28;20017;-65
2022/03/10 15:32:24;;;;;;;26.13;13.32;;;15.00;54.80;;;;;;10475852;28;20028;-67
2022/03/10 15:37:25;;;;;;;28.42;13.07;;;14.70;55.00;;;;;;10478735;28;20040;-66
2022/03/10 15:42:25;;;;;;;26.92;13.05;;;14.50;55.20;;;;;;10472993;28;20082;-62
2022/03/10 15:47:26;;;;;;;27.52;13.52;;;14.30;55.40;;;;;;10476051;28;20035;-66
2022/03/10 15:52:27;;;;;;;32.20;13.80;;;14.10;55.60;;;;;;10473154;28;20028;-64
2022/03/10 15:57:29;;;;;;;29.33;13.93;;;14.00;55.90;;;;;;10475507;28;20044;-68
2022/03/10 16:02:30;;;;;;;26.33;13.05;;;13.90;55.80;;;;;;10471588;28;20027;-66
2022/03/10 16:07:31;;;;;;;30.48;13.25;;;13.80;55.80;;;;;;10459378;28;20043;-69
2022/03/10 16:12:31;;;;;;;33.28;14.93;;;13.80;56.10;;;;;;10463417;28;20439;-71
2022/03/10 16:17:33;;;;;;;30.48;13.40;;;13.80;55.70;;;;;;10467106;28;20218;-70
2022/03/10 16:22:34;;;;;;;32.00;14.52;;;13.70;55.60;;;;;;10456994;28;20032;-70
2022/03/10 16:27:35;;;;;;;30.75;13.15;;;13.60;55.70;;;;;;10453932;28;20028;-66
2022/03/10 16:32:36;;;;;;;27.73;14.10;;;13.50;55.70;;;;;;10436482;28;20025;-66
2022/03/10 16:37:38;;;;;;;33.22;13.48;;;13.40;55.70;;;;;;10451681;28;20033;-63
2022/03/10 16:42:39;;;;;;;29.02;13.02;;;13.30;55.80;;;;;;10452242;28;20051;-67
2022/03/10 16:47:39;;;;;;;31.33;13.13;;;13.30;55.80;;;;;;10442894;28;20055;-64
2022/03/10 16:52:40;;;;;;;32.78;13.40;;;13.20;55.80;;;;;;10451504;28;20041;-74
2022/03/10 16:57:41;;;;;;;30.73;13.48;;;13.20;56.10;;;;;;10454835;28;20045;-70
2022/03/10 17:02:42;;;;;;;29.60;13.15;;;13.40;56.60;;;;;;10451254;28;20017;-72
2022/03/10 17:07:44;;;;;;;30.15;14.32;;;13.30;57.20;;;;;;10470807;28;20036;-70
2022/03/10 17:12:45;;;;;;;28.27;12.15;;;13.30;57.40;;;;;;10481030;28;20119;-70
2022/03/10 17:17:46;;;;;;;25.23;11.77;;;13.30;57.90;;;;;;10478953;28;20037;-69
2022/03/10 17:22:47;;;;;;;26.40;11.95;;;13.30;59.10;;;;;;10474464;28;20028;-67
2022/03/10 17:27:48;;;;;;;27.13;12.90;;;13.20;59.00;;;;;;10484728;28;20068;-66
2022/03/10 17:32:49;;;;;;;30.55;13.52;;;13.20;59.50;;;;;;10481348;28;20048;-68
2022/03/10 17:37:49;;;;;;;25.50;12.10;;;13.10;59.90;;;;;;10483810;28;20047;-67
2022/03/10 17:42:50;;;;;;;25.00;11.85;;;13.10;60.00;;;;;;10458617;28;20040;-70
2022/03/10 17:47:52;;;;;;;27.70;12.90;;;13.10;60.30;;;;;;10454028;28;20491;-67
2022/03/10 17:52:55;;;;;;;22.60;10.73;;;13.00;60.70;;;;;;10451716;28;20021;-62
2022/03/10 17:57:56;;;;;;;25.45;11.10;;;13.00;61.10;;;;;;10470142;28;20064;-60
2022/03/10 18:02:57;;;;;;;24.33;10.55;;;12.90;61.50;;;;;;10474969;28;20074;-68
2022/03/10 18:07:59;;;;;;;26.38;12.27;;;12.90;61.80;;;;;;10481843;28;20111;-63
2022/03/10 18:13:00;;;;;;;25.63;11.38;;;12.80;62.00;;;;;;10483213;28;20033;-66
2022/03/10 18:18:00;;;;;;;23.00;10.98;;;12.80;62.20;;;;;;10482499;28;20048;-63
2022/03/10 18:23:03;;;;;;;24.13;10.95;;;12.70;62.40;;;;;;10469259;28;20029;-69
2022/03/10 18:28:05;;;;;;;23.17;10.63;;;12.70;62.40;;;;;;10478846;28;20028;-67
2022/03/10 18:33:06;;;;;;;26.20;10.80;;;12.60;62.50;;;;;;10480855;28;20025;-62
2022/03/10 18:38:07;;;;;;;22.02;10.27;;;12.70;63.00;;;;;;10457080;28;20360;-66
2022/03/10 18:43:08;;;;;;;22.88;10.38;;;12.60;63.60;;;;;;10448483;28;20555;-62
2022/03/10 18:48:09;;;;;;;22.73;9.52;;;12.50;63.10;;;;;;10410543;28;20024;-63
2022/03/10 18:53:10;;;;;;;19.92;9.98;;;12.50;63.40;;;;;;10449609;28;20040;-64
2022/03/10 18:58:11;;;;;;;15.57;8.45;;;12.40;63.40;;;;;;10453741;28;20032;-64
2022/03/10 19:03:12;;;;;;;19.23;9.00;;;12.40;63.60;;;;;;10470498;28;20025;-61
2022/03/10 19:08:15;;;;;;;15.32;8.07;;;12.40;63.70;;;;;;10481829;28;20528;-62
2022/03/10 19:13:16;;;;;;;15.63;8.05;;;12.30;63.70;;;;;;10477138;28;20143;-61
2022/03/10 19:18:17;;;;;;;15.05;7.88;;;12.30;63.90;;;;;;10483962;28;20240;-61
2022/03/10 19:23:18;;;;;;;16.45;8.90;;;12.20;63.80;;;;;;10471058;28;20017;-60
2022/03/10 19:28:19;;;;;;;19.00;8.95;;;12.20;63.80;;;;;;10487789;28;20510;-61
2022/03/10 19:33:19;;;;;;;16.50;7.68;;;12.20;63.80;;;;;;10470171;28;20055;-61
2022/03/10 19:38:21;;;;;;;15.43;7.70;;;12.10;63.70;;;;;;10480758;28;20025;-65
2022/03/10 19:43:22;;;;;;;15.95;8.20;;;12.10;63.80;;;;;;10479899;28;20045;-61
2022/03/10 19:48:23;;;;;;;17.15;7.78;;;12.10;63.80;;;;;;10478538;28;20039;-63
2022/03/10 19:53:24;;;;;;;17.00;7.90;;;12.00;63.80;;;;;;10482886;28;20028;-63
2022/03/10 19:58:24;;;;;;;13.18;6.95;;;12.00;63.90;;;;;;10465534;28;20476;-63
2022/03/10 20:03:27;;;;;;;13.77;7.30;;;12.00;63.90;;;;;;10469766;28;20041;-62
2022/03/10 20:08:29;;;;;;;14.70;7.63;;;11.90;63.80;;;;;;10448356;28;20041;-65
2022/03/10 20:13:33;;;;;;;15.13;7.05;;;11.90;63.90;;;;;;10453783;28;20415;-64
2022/03/10 20:18:34;;;;;;;14.75;6.68;;;11.90;64.50;;;;;;10466231;28;20052;-65
2022/03/10 20:23:35;;;;;;;13.73;7.00;;;11.80;63.80;;;;;;10475743;28;20017;-64
2022/03/10 20:28:36;;;;;;;13.95;7.18;;;11.80;63.90;;;;;;10487910;28;20334;-60
2022/03/10 20:33:38;;;;;;;13.88;7.32;;;11.80;64.10;;;;;;10477024;28;20056;-62
2022/03/10 20:38:39;;;;;;;14.68;6.70;;;11.70;64.00;;;;;;10484679;28;20123;-64
2022/03/10 20:43:39;;;;;;;13.20;7.57;;;11.70;64.10;;;;;;10484422;28;20045;-66
2022/03/10 20:48:40;;;;;;;15.45;7.40;;;11.60;64.20;;;;;;10464661;28;20025;-61
2022/03/10 20:53:41;;;;;;;11.27;7.18;;;11.60;64.20;;;;;;10473580;28;21397;-65
2022/03/10 20:58:41;;;;;;;13.07;7.05;;;11.60;64.30;;;;;;10461105;28;20131;-67
2022/03/10 21:03:42;;;;;;;13.48;7.25;;;11.60;64.30;;;;;;10481637;28;20025;-61
2022/03/10 21:08:43;;;;;;;13.02;6.47;;;11.50;64.40;;;;;;10480379;28;20036;-62
2022/03/10 21:13:44;;;;;;;13.05;6.70;;;11.50;64.40;;;;;;10449812;28;20029;-62
2022/03/10 21:18:44;;;;;;;13.95;7.22;;;11.50;64.50;;;;;;10463410;28;20045;-61
2022/03/10 21:23:45;;;;;;;11.25;6.22;;;11.30;64.50;;;;;;10469240;28;20048;-62
2022/03/10 21:28:46;;;;;;;12.38;5.93;;;11.40;64.60;;;;;;10468382;28;20032;-60
2022/03/10 21:33:47;;;;;;;13.88;6.93;;;11.40;64.70;;;;;;10477307;28;20503;-61
2022/03/10 21:38:48;;;;;;;10.45;6.18;;;11.40;64.80;;;;;;10485038;28;20039;-63
2022/03/10 21:43:48;;;;;;;11.82;5.90;;;11.30;64.90;;;;;;10472878;28;20446;-62
2022/03/10 21:48:50;;;;;;;14.43;6.82;;;11.30;65.10;;;;;;10482963;28;20095;-62
2022/03/10 21:53:51;;;;;;;14.30;6.32;;;11.20;65.20;;;;;;10451900;28;20020;-63
2022/03/10 21:58:55;;;;;;;13.60;6.80;;;11.20;65.30;;;;;;10472492;28;20414;-62
2022/03/10 22:03:55;;;;;;;12.68;6.47;;;11.20;66.10;;;;;;10481343;28;20008;-66
2022/03/10 22:08:56;;;;;;;11.65;6.43;;;11.10;65.60;;;;;;10480805;28;20138;-62
2022/03/10 22:13:57;;;;;;;10.57;6.15;;;11.10;65.80;;;;;;10484088;28;20268;-64
2022/03/10 22:19:03;;;;;;;14.60;7.10;;;11.10;66.00;;;;;;10478962;28;20087;-63
2022/03/10 22:24:04;;;;;;;12.13;6.53;;;11.00;66.20;;;;;;10479963;28;20040;-66
2022/03/10 22:29:05;;;;;;;11.50;6.13;;;11.00;66.30;;;;;;10457337;28;20040;-63
2022/03/10 22:34:06;;;;;;;12.07;6.65;;;11.00;66.50;;;;;;10479753;28;20471;-67
2022/03/10 22:39:07;;;;;;;12.90;6.07;;;10.90;66.60;;;;;;10485880;28;20033;-64
2022/03/10 22:44:08;;;;;;;13.43;6.65;;;10.90;66.70;;;;;;10463584;28;20055;-63
2022/03/10 22:49:08;;;;;;;12.40;6.70;;;10.80;66.70;;;;;;10491811;28;20029;-61
2022/03/10 22:54:12;;;;;;;14.48;7.50;;;10.80;66.90;;;;;;10488486;28;20028;-64
2022/03/10 22:59:15;;;;;;;12.93;6.95;;;10.80;67.00;;;;;;10491610;28;20142;-61
2022/03/10 23:09:40;;;;;;;11.73;6.90;;;10.70;67.10;;;;;;10443242;28;20044;-63
2022/03/10 23:14:41;;;;;;;13.13;7.05;;;10.70;67.20;;;;;;10490516;28;20025;-61
2022/03/10 23:19:41;;;;;;;12.70;6.43;;;10.70;67.20;;;;;;10490255;28;20048;-62
2022/03/10 23:24:42;;;;;;;10.27;5.82;;;10.70;67.30;;;;;;10490294;28;20031;-61
2022/03/10 23:29:43;;;;;;;11.70;6.20;;;10.60;67.30;;;;;;10488272;28;20020;-63
2022/03/10 23:34:44;;;;;;;13.13;6.65;;;10.60;67.30;;;;;;10490116;28;20205;-65
2022/03/10 23:39:45;;;;;;;11.95;6.47;;;10.60;67.40;;;;;;10489963;28;20111;-62
2022/03/10 23:44:46;;;;;;;12.15;7.40;;;10.50;67.40;;;;;;10488913;28;20037;-62
2022/03/10 23:49:46;;;;;;;10.15;6.22;;;10.50;68.10;;;;;;10488068;28;20037;-64
2022/03/10 23:54:47;;;;;;;14.15;6.70;;;10.50;67.40;;;;;;10485964;28;20115;-61
2022/03/10 23:59:48;;;;;;;11.88;6.40;;;10.40;67.40;;;;;;10478017;28;20029;-64
